Flight Track Log - Related Links

Times and Time Zones

All times are in EDT time to prevent confusion due to time zone crossing. See the TAM3882 flight status page for this flight to view local times or setup timezone preferences in your user account.

Time Position Orientation Groundspeed Altitude Reporting Facility
EDT Latitude Longitude Course Direction KTS MPH feet Rate Location/Type
Mon 10:53:00 PM -13.1467 -46.5926 25° Northeast  Level Estimated
Mon 10:54:00 PM -13.0496 -46.5460 25° Northeast  Level Estimated
Mon 10:55:00 PM -12.9525 -46.4995 25° Northeast  Level Estimated
Mon 10:56:00 PM -12.8553 -46.4530 25° Northeast  Level Estimated
Mon 10:57:00 PM -12.7582 -46.4066 25° Northeast  Level Estimated
Mon 10:58:00 PM -12.6610 -46.3601 25° Northeast  Level Estimated
Mon 10:59:00 PM -12.5638 -46.3137 25° Northeast  Level Estimated
Mon 11:00:00 PM -12.4667 -46.2674 25° Northeast  Level Estimated
Mon 11:01:00 PM -12.3695 -46.2211 25° Northeast  Level Estimated
Mon 11:02:00 PM -12.2723 -46.1748 25° Northeast  Level Estimated
Mon 11:03:00 PM -12.1751 -46.1285 25° Northeast  Level Estimated
Mon 11:04:00 PM -12.0779 -46.0823 25° Northeast  Level Estimated
Mon 11:05:00 PM -11.9807 -46.0361 25° Northeast  Level Estimated
Mon 11:06:00 PM -11.8834 -45.9900 25° Northeast  Level Estimated
Mon 11:07:00 PM -11.7862 -45.9439 25° Northeast  Level Estimated
Mon 11:08:00 PM -11.6890 -45.8978 25° Northeast  Level Estimated
Mon 11:09:00 PM -11.5917 -45.8517 25° Northeast  Level Estimated
Mon 11:10:00 PM -11.4945 -45.8057 25° Northeast  Level Estimated
Mon 11:11:00 PM -11.3972 -45.7597 25° Northeast  Level Estimated
Mon 11:12:00 PM -11.3000 -45.7138 25° Northeast  Level Estimated
Mon 11:13:00 PM -11.2027 -45.6678 25° Northeast  Level Estimated
Mon 11:14:00 PM -11.1054 -45.6219 25° Northeast  Level Estimated
Mon 11:15:00 PM -11.0081 -45.5761 25° Northeast  Level Estimated
Mon 11:16:00 PM -10.9108 -45.5303 25° Northeast  Level Estimated
Mon 11:17:00 PM -10.8135 -45.4845 25° Northeast  Level Estimated
Mon 11:18:00 PM -10.7162 -45.4387 25° Northeast  Level Estimated
Mon 11:19:00 PM -10.6189 -45.3929 25° Northeast  Level Estimated
Mon 11:20:00 PM -10.5216 -45.3472 25° Northeast  Level Estimated
Mon 11:21:00 PM -10.4243 -45.3015 25° Northeast  Level Estimated
Mon 11:22:00 PM -10.3269 -45.2559 25° Northeast  Level Estimated
Mon 11:23:00 PM -10.2296 -45.2102 25° Northeast  Level Estimated
Mon 11:24:00 PM -10.1322 -45.1646 25° Northeast  Level Estimated
Mon 11:25:00 PM -10.0349 -45.1191 25° Northeast  Level Estimated
Mon 11:26:00 PM -9.9375 -45.0735 25° Northeast  Level Estimated
Mon 11:27:00 PM -9.8402 -45.0280 25° Northeast  Level Estimated
Mon 11:28:00 PM -9.7428 -44.9825 25° Northeast  Level Estimated
Mon 11:29:00 PM -9.6454 -44.9370 25° Northeast  Level Estimated
Mon 11:30:00 PM -9.5480 -44.8916 25° Northeast  Level Estimated
Mon 11:31:00 PM -9.4507 -44.8462 25° Northeast  Level Estimated
Mon 11:32:00 PM -9.3533 -44.8008 25° Northeast  Level Estimated
Mon 11:33:00 PM -9.2559 -44.7554 25° Northeast  Level Estimated
Mon 11:34:00 PM -9.1585 -44.7101 25° Northeast  Level Estimated
Mon 11:35:00 PM -9.0610 -44.6648 25° Northeast  Level Estimated
Mon 11:36:00 PM -8.9636 -44.6195 25° Northeast  Level Estimated
Mon 11:37:00 PM -8.8662 -44.5742 25° Northeast  Level Estimated
Mon 11:38:00 PM -8.7688 -44.5290 25° Northeast  Level Estimated
Mon 11:39:00 PM -8.6713 -44.4838 25° Northeast  Level Estimated
Mon 11:40:00 PM -8.5739 -44.4386 25° Northeast  Level Estimated
Mon 11:41:00 PM -8.4765 -44.3934 25° Northeast  Level Estimated
Mon 11:42:00 PM -8.3790 -44.3483 25° Northeast  Level Estimated
Mon 11:43:00 PM -8.2816 -44.3032 25° Northeast  Level Estimated
Mon 11:44:00 PM -8.1841 -44.2580 25° Northeast  Level Estimated
Mon 11:45:00 PM -8.0866 -44.2130 25° Northeast  Level Estimated
Mon 11:46:00 PM -7.9892 -44.1679 25° Northeast  Level Estimated
Mon 11:47:00 PM -7.8917 -44.1229 25° Northeast  Level Estimated
Mon 11:48:00 PM -7.7942 -44.0779 25° Northeast  Level Estimated
Mon 11:49:00 PM -7.6967 -44.0329 25° Northeast  Level Estimated
Mon 11:50:00 PM -7.5992 -43.9879 25° Northeast  Level Estimated
Mon 11:51:00 PM -7.5018 -43.9429 25° Northeast  Level Estimated
Mon 11:52:00 PM -7.4043 -43.8980 25° Northeast  Level Estimated
Mon 11:53:00 PM -7.3068 -43.8531 25° Northeast  Level Estimated
Mon 11:54:00 PM -7.2092 -43.8082 25° Northeast  Level Estimated
Mon 11:55:00 PM -7.1117 -43.7633 25° Northeast  Level Estimated
Mon 11:56:00 PM -7.0142 -43.7185 25° Northeast  Level Estimated
Mon 11:57:00 PM -6.9167 -43.6736 25° Northeast  Level Estimated
Mon 11:58:00 PM -6.8192 -43.6288 25° Northeast  Level Estimated
Mon 11:59:00 PM -6.7217 -43.5840 25° Northeast  Level Estimated
Tue 12:00:00 AM -6.6241 -43.5392 25° Northeast  Level Estimated
Tue 12:01:00 AM -6.5266 -43.4945 25° Northeast  Level Estimated
Tue 12:02:00 AM -6.4290 -43.4497 25° Northeast  Level Estimated
Tue 12:03:00 AM -6.3315 -43.4050 25° Northeast  Level Estimated
Tue 12:04:00 AM -6.2340 -43.3603 24° Northeast  Level Estimated
Tue 12:05:00 AM -6.1364 -43.3156 24° Northeast  Level Estimated
Tue 12:06:00 AM -6.0389 -43.2709 24° Northeast  Level Estimated
Tue 12:07:00 AM -5.9413 -43.2262 24° Northeast  Level Estimated
Tue 12:08:00 AM -5.8437 -43.1816 24° Northeast  Level Estimated
Tue 12:09:00 AM -5.7462 -43.1370 24° Northeast  Level Estimated
Tue 12:10:00 AM -5.6486 -43.0923 24° Northeast  Level Estimated
Tue 12:11:00 AM -5.5510 -43.0477 24° Northeast  Level Estimated
Tue 12:12:00 AM -5.4535 -43.0031 24° Northeast  Level Estimated
Tue 12:13:00 AM -5.3559 -42.9586 24° Northeast  Level Estimated
Tue 12:14:00 AM -5.2583 -42.9140 24° Northeast  Level Estimated
Tue 12:15:00 AM -5.1607 -42.8695 24° Northeast  Level Estimated
Tue 12:16:00 AM -5.0631 -42.8249 24° Northeast  Level Estimated
Tue 12:17:00 AM -5.0599 -42.8235 24° Northeast  Level Estimated
Tue 12:18:00 AM -5.0599 -42.8235 135° Southeast  Level Estimated
Tue 12:19:00 AM -5.0599 -42.8235 135° Southeast  Level Estimated
Tue 12:20:00 AM -5.0599 -42.8235 135° Southeast  Level Estimated
Tue 12:21:00 AM -5.0599 -42.8235 135° Southeast  Level Estimated
Tue 12:22:00 AM -5.0599 -42.8235 135° Southeast  Level Estimated
Tue 12:23:00 AM -5.0599 -42.8235 135° Southeast  Level Estimated
Tue 12:24:00 AM -5.0599 -42.8235 135° Southeast  Level Estimated
Tue 12:25:00 AM -5.0599 -42.8235 135° Southeast  Level Estimated
Tue 12:26:00 AM -5.0599 -42.8235 135° Southeast  Level Estimated

Login

Don't have an account? Register now (free) for customized features, flight alerts, and more!